sensor_id;sensor_type;location;lat;lon;timestamp;temperature;humidity
13992;DHT22;7070;53.586;9.692;2023-02-27T00:02:00;-2.20;79.90
13992;DHT22;7070;53.586;9.692;2023-02-27T00:04:27;-2.20;79.80
13992;DHT22;7070;53.586;9.692;2023-02-27T00:06:54;-2.10;79.90
13992;DHT22;7070;53.586;9.692;2023-02-27T00:09:20;-2.10;79.60
13992;DHT22;7070;53.586;9.692;2023-02-27T00:11:49;-2.00;79.70
13992;DHT22;7070;53.586;9.692;2023-02-27T00:14:15;-2.00;79.70
13992;DHT22;7070;53.586;9.692;2023-02-27T00:16:42;-2.00;79.70
13992;DHT22;7070;53.586;9.692;2023-02-27T00:19:09;-2.00;79.70
13992;DHT22;7070;53.586;9.692;2023-02-27T00:21:37;-1.90;79.80
13992;DHT22;7070;53.586;9.692;2023-02-27T00:24:04;-2.00;79.70
13992;DHT22;7070;53.586;9.692;2023-02-27T00:26:31;-1.90;79.70
13992;DHT22;7070;53.586;9.692;2023-02-27T00:28:59;-2.00;79.60
13992;DHT22;7070;53.586;9.692;2023-02-27T00:31:26;-1.90;79.60
13992;DHT22;7070;53.586;9.692;2023-02-27T00:33:53;-1.90;79.60
13992;DHT22;7070;53.586;9.692;2023-02-27T00:36:20;-1.90;79.50
13992;DHT22;7070;53.586;9.692;2023-02-27T00:38:47;-2.00;79.30
13992;DHT22;7070;53.586;9.692;2023-02-27T00:41:13;-2.00;79.20
13992;DHT22;7070;53.586;9.692;2023-02-27T00:43:40;-2.00;79.10
13992;DHT22;7070;53.586;9.692;2023-02-27T00:46:08;-2.10;79.00
13992;DHT22;7070;53.586;9.692;2023-02-27T00:48:35;-2.10;79.00
13992;DHT22;7070;53.586;9.692;2023-02-27T00:51:02;-2.20;79.00
13992;DHT22;7070;53.586;9.692;2023-02-27T00:53:29;-2.20;79.00
13992;DHT22;7070;53.586;9.692;2023-02-27T00:55:56;-2.30;78.90
13992;DHT22;7070;53.586;9.692;2023-02-27T00:58:23;-2.30;79.00
13992;DHT22;7070;53.586;9.692;2023-02-27T01:00:50;-2.30;78.90
13992;DHT22;7070;53.586;9.692;2023-02-27T01:03:18;-2.40;79.00
13992;DHT22;7070;53.586;9.692;2023-02-27T01:05:45;-2.40;78.90
13992;DHT22;7070;53.586;9.692;2023-02-27T01:08:12;-2.50;78.90
13992;DHT22;7070;53.586;9.692;2023-02-27T01:10:39;-2.50;79.00
13992;DHT22;7070;53.586;9.692;2023-02-27T01:13:06;-2.50;79.00
13992;DHT22;7070;53.586;9.692;2023-02-27T01:15:32;-2.60;78.90
13992;DHT22;7070;53.586;9.692;2023-02-27T01:17:59;-2.60;79.00
13992;DHT22;7070;53.586;9.692;2023-02-27T01:20:28;-2.60;79.10
13992;DHT22;7070;53.586;9.692;2023-02-27T01:22:55;-2.70;79.00
13992;DHT22;7070;53.586;9.692;2023-02-27T01:25:21;-2.70;79.00
13992;DHT22;7070;53.586;9.692;2023-02-27T01:27:48;-2.70;79.20
13992;DHT22;7070;53.586;9.692;2023-02-27T01:30:15;-2.70;79.20
13992;DHT22;7070;53.586;9.692;2023-02-27T01:32:42;-2.70;79.30
13992;DHT22;7070;53.586;9.692;2023-02-27T01:35:09;-2.80;79.30
13992;DHT22;7070;53.586;9.692;2023-02-27T01:37:38;-2.80;79.20
13992;DHT22;7070;53.586;9.692;2023-02-27T01:40:06;-2.70;79.30
13992;DHT22;7070;53.586;9.692;2023-02-27T01:42:33;-2.80;79.30
13992;DHT22;7070;53.586;9.692;2023-02-27T01:47:53;-2.80;79.40
13992;DHT22;7070;53.586;9.692;2023-02-27T01:50:21;-2.90;79.40
13992;DHT22;7070;53.586;9.692;2023-02-27T01:52:54;-2.90;79.40
13992;DHT22;7070;53.586;9.692;2023-02-27T01:55:22;-2.90;79.40
13992;DHT22;7070;53.586;9.692;2023-02-27T01:57:51;-2.90;79.50
13992;DHT22;7070;53.586;9.692;2023-02-27T02:00:19;-2.90;79.60
13992;DHT22;7070;53.586;9.692;2023-02-27T02:02:50;-2.90;79.50
13992;DHT22;7070;53.586;9.692;2023-02-27T02:05:20;-3.00;79.40
13992;DHT22;7070;53.586;9.692;2023-02-27T02:07:49;-2.90;79.60
13992;DHT22;7070;53.586;9.692;2023-02-27T02:10:17;-3.00;79.40
13992;DHT22;7070;53.586;9.692;2023-02-27T02:12:46;-3.00;79.50
13992;DHT22;7070;53.586;9.692;2023-02-27T02:15:13;-3.00;79.60
13992;DHT22;7070;53.586;9.692;2023-02-27T02:17:47;-3.00;79.60
13992;DHT22;7070;53.586;9.692;2023-02-27T02:23:53;-1.50;81.10
13992;DHT22;7070;53.586;9.692;2023-02-27T02:26:28;-3.10;79.70
13992;DHT22;7070;53.586;9.692;2023-02-27T02:29:35;-3.10;79.60
13992;DHT22;7070;53.586;9.692;2023-02-27T02:32:30;-3.10;79.60
13992;DHT22;7070;53.586;9.692;2023-02-27T02:38:36;-3.10;79.70
13992;DHT22;7070;53.586;9.692;2023-02-27T02:41:11;-3.10;79.70
13992;DHT22;7070;53.586;9.692;2023-02-27T02:43:46;-3.20;79.60
13992;DHT22;7070;53.586;9.692;2023-02-27T02:46:19;-3.20;79.70
13992;DHT22;7070;53.586;9.692;2023-02-27T02:48:51;-3.20;79.70
13992;DHT22;7070;53.586;9.692;2023-02-27T02:51:25;-3.20;79.80
13992;DHT22;7070;53.586;9.692;2023-02-27T02:54:00;-3.20;79.90
13992;DHT22;7070;53.586;9.692;2023-02-27T02:56:34;-3.20;79.80
13992;DHT22;7070;53.586;9.692;2023-02-27T02:59:07;-3.20;79.90
13992;DHT22;7070;53.586;9.692;2023-02-27T03:01:37;-3.30;79.90
13992;DHT22;7070;53.586;9.692;2023-02-27T03:04:09;-3.20;80.00
13992;DHT22;7070;53.586;9.692;2023-02-27T03:06:41;-3.30;80.00
13992;DHT22;7070;53.586;9.692;2023-02-27T03:09:13;-3.20;80.20
13992;DHT22;7070;53.586;9.692;2023-02-27T03:11:44;-3.20;80.20
13992;DHT22;7070;53.586;9.692;2023-02-27T03:14:17;-3.20;80.20
13992;DHT22;7070;53.586;9.692;2023-02-27T03:16:47;-3.20;80.20
13992;DHT22;7070;53.586;9.692;2023-02-27T03:19:19;-3.20;80.20
13992;DHT22;7070;53.586;9.692;2023-02-27T03:21:49;-3.10;80.30
13992;DHT22;7070;53.586;9.692;2023-02-27T03:24:22;-3.20;80.20
13992;DHT22;7070;53.586;9.692;2023-02-27T03:26:51;-3.10;80.30
13992;DHT22;7070;53.586;9.692;2023-02-27T03:29:24;-3.10;80.20
13992;DHT22;7070;53.586;9.692;2023-02-27T03:31:56;-3.10;80.20
13992;DHT22;7070;53.586;9.692;2023-02-27T03:34:27;-3.10;80.30
13992;DHT22;7070;53.586;9.692;2023-02-27T03:37:00;-3.10;80.30
13992;DHT22;7070;53.586;9.692;2023-02-27T03:39:36;-3.10;80.20
13992;DHT22;7070;53.586;9.692;2023-02-27T03:42:13;-3.10;80.20
13992;DHT22;7070;53.586;9.692;2023-02-27T03:44:51;-3.10;80.20
13992;DHT22;7070;53.586;9.692;2023-02-27T03:47:19;-3.10;80.30
13992;DHT22;7070;53.586;9.692;2023-02-27T03:49:46;-3.20;80.20
13992;DHT22;7070;53.586;9.692;2023-02-27T03:52:15;-3.10;81.30
13992;DHT22;7070;53.586;9.692;2023-02-27T03:54:47;-3.10;80.70
13992;DHT22;7070;53.586;9.692;2023-02-27T03:57:15;-3.00;81.00
13992;DHT22;7070;53.586;9.692;2023-02-27T03:59:42;-2.90;81.20
13992;DHT22;7070;53.586;9.692;2023-02-27T04:02:09;-2.90;81.10
13992;DHT22;7070;53.586;9.692;2023-02-27T04:04:36;-2.90;81.00
13992;DHT22;7070;53.586;9.692;2023-02-27T04:07:08;-2.80;81.10
13992;DHT22;7070;53.586;9.692;2023-02-27T04:10:10;-2.80;81.10
13992;DHT22;7070;53.586;9.692;2023-02-27T04:13:20;-2.80;81.10
13992;DHT22;7070;53.586;9.692;2023-02-27T04:18:53;-2.70;81.10
13992;DHT22;7070;53.586;9.692;2023-02-27T04:21:27;-2.70;81.10
13992;DHT22;7070;53.586;9.692;2023-02-27T04:23:58;-2.70;81.20
13992;DHT22;7070;53.586;9.692;2023-02-27T04:26:36;-2.60;81.40
13992;DHT22;7070;53.586;9.692;2023-02-27T04:29:05;-2.60;81.30
13992;DHT22;7070;53.586;9.692;2023-02-27T04:31:43;-2.60;81.20
13992;DHT22;7070;53.586;9.692;2023-02-27T04:34:15;-2.60;81.20
13992;DHT22;7070;53.586;9.692;2023-02-27T04:36:47;-2.50;81.30
13992;DHT22;7070;53.586;9.692;2023-02-27T04:39:22;-2.50;81.10
13992;DHT22;7070;53.586;9.692;2023-02-27T04:41:55;-2.60;81.00
13992;DHT22;7070;53.586;9.692;2023-02-27T04:44:23;-2.60;81.00
13992;DHT22;7070;53.586;9.692;2023-02-27T04:46:51;-2.70;80.90
13992;DHT22;7070;53.586;9.692;2023-02-27T04:49:24;-2.60;80.90
13992;DHT22;7070;53.586;9.692;2023-02-27T04:51:55;-2.60;80.80
13992;DHT22;7070;53.586;9.692;2023-02-27T04:54:28;-2.70;80.70
13992;DHT22;7070;53.586;9.692;2023-02-27T04:56:59;-2.70;80.80
13992;DHT22;7070;53.586;9.692;2023-02-27T04:59:31;-2.70;80.70
13992;DHT22;7070;53.586;9.692;2023-02-27T05:02:01;-2.70;80.80
13992;DHT22;7070;53.586;9.692;2023-02-27T05:04:33;-2.70;80.80
13992;DHT22;7070;53.586;9.692;2023-02-27T05:07:01;-2.80;80.70
13992;DHT22;7070;53.586;9.692;2023-02-27T05:09:35;-2.80;80.80
13992;DHT22;7070;53.586;9.692;2023-02-27T05:12:11;-2.80;80.90
13992;DHT22;7070;53.586;9.692;2023-02-27T05:14:44;-2.90;80.90
13992;DHT22;7070;53.586;9.692;2023-02-27T05:17:17;-2.80;81.00
13992;DHT22;7070;53.586;9.692;2023-02-27T05:19:46;-2.90;81.10
13992;DHT22;7070;53.586;9.692;2023-02-27T05:22:22;-2.90;81.20
13992;DHT22;7070;53.586;9.692;2023-02-27T05:24:57;-2.80;81.30
13992;DHT22;7070;53.586;9.692;2023-02-27T05:27:32;-2.80;82.10
13992;DHT22;7070;53.586;9.692;2023-02-27T05:30:03;-2.80;81.40
13992;DHT22;7070;53.586;9.692;2023-02-27T05:32:35;-2.70;81.40
13992;DHT22;7070;53.586;9.692;2023-02-27T05:35:10;-2.80;81.30
13992;DHT22;7070;53.586;9.692;2023-02-27T05:37:43;-2.80;81.30
13992;DHT22;7070;53.586;9.692;2023-02-27T05:42:44;-2.80;81.30
13992;DHT22;7070;53.586;9.692;2023-02-27T05:45:17;-2.80;81.30
13992;DHT22;7070;53.586;9.692;2023-02-27T05:47:51;-2.80;81.40
13992;DHT22;7070;53.586;9.692;2023-02-27T05:50:22;-2.80;81.50
13992;DHT22;7070;53.586;9.692;2023-02-27T05:52:52;-2.80;81.50
13992;DHT22;7070;53.586;9.692;2023-02-27T05:55:22;-2.70;81.60
13992;DHT22;7070;53.586;9.692;2023-02-27T05:57:55;-2.70;81.70
13992;DHT22;7070;53.586;9.692;2023-02-27T06:00:27;-2.70;81.60
13992;DHT22;7070;53.586;9.692;2023-02-27T06:02:55;-2.70;81.60
13992;DHT22;7070;53.586;9.692;2023-02-27T06:05:24;-2.70;81.70
13992;DHT22;7070;53.586;9.692;2023-02-27T06:07:51;-2.70;82.50
13992;DHT22;7070;53.586;9.692;2023-02-27T06:10:19;-2.70;81.70
13992;DHT22;7070;53.586;9.692;2023-02-27T06:12:46;-2.60;81.90
13992;DHT22;7070;53.586;9.692;2023-02-27T06:15:15;-2.70;81.80
13992;DHT22;7070;53.586;9.692;2023-02-27T06:17:43;-2.60;81.90
13992;DHT22;7070;53.586;9.692;2023-02-27T06:20:11;-2.60;81.90
13992;DHT22;7070;53.586;9.692;2023-02-27T06:22:38;-2.60;81.90
13992;DHT22;7070;53.586;9.692;2023-02-27T06:25:05;-2.50;81.90
13992;DHT22;7070;53.586;9.692;2023-02-27T06:27:32;-2.50;82.10
13992;DHT22;7070;53.586;9.692;2023-02-27T06:29:59;-2.50;82.20
13992;DHT22;7070;53.586;9.692;2023-02-27T06:32:27;-2.50;82.30
13992;DHT22;7070;53.586;9.692;2023-02-27T06:34:54;-2.40;82.40
13992;DHT22;7070;53.586;9.692;2023-02-27T06:37:21;-2.30;82.20
13992;DHT22;7070;53.586;9.692;2023-02-27T06:39:48;-2.30;82.20
13992;DHT22;7070;53.586;9.692;2023-02-27T06:42:15;-2.30;82.10
13992;DHT22;7070;53.586;9.692;2023-02-27T06:44:42;-2.30;82.00
13992;DHT22;7070;53.586;9.692;2023-02-27T06:47:09;-2.30;81.90
13992;DHT22;7070;53.586;9.692;2023-02-27T06:49:37;-2.30;81.80
13992;DHT22;7070;53.586;9.692;2023-02-27T06:52:04;-2.30;81.80
13992;DHT22;7070;53.586;9.692;2023-02-27T06:54:31;-2.20;82.10
13992;DHT22;7070;53.586;9.692;2023-02-27T06:56:58;-2.30;82.00
13992;DHT22;7070;53.586;9.692;2023-02-27T06:59:25;-2.30;82.00
13992;DHT22;7070;53.586;9.692;2023-02-27T07:01:52;-2.30;82.10
13992;DHT22;7070;53.586;9.692;2023-02-27T07:04:18;-2.30;82.10
13992;DHT22;7070;53.586;9.692;2023-02-27T07:06:47;-2.20;82.30
13992;DHT22;7070;53.586;9.692;2023-02-27T07:09:13;-2.20;82.40
13992;DHT22;7070;53.586;9.692;2023-02-27T07:11:40;-2.10;82.50
13992;DHT22;7070;53.586;9.692;2023-02-27T07:14:07;-2.10;82.60
13992;DHT22;7070;53.586;9.692;2023-02-27T07:16:34;-2.00;82.70
13992;DHT22;7070;53.586;9.692;2023-02-27T07:19:01;-2.00;82.80
13992;DHT22;7070;53.586;9.692;2023-02-27T07:21:27;-1.90;82.90
13992;DHT22;7070;53.586;9.692;2023-02-27T07:23:56;-1.90;83.00
13992;DHT22;7070;53.586;9.692;2023-02-27T07:26:22;-1.80;83.10
13992;DHT22;7070;53.586;9.692;2023-02-27T07:28:49;-1.70;83.30
13992;DHT22;7070;53.586;9.692;2023-02-27T07:31:16;-1.60;83.40
13992;DHT22;7070;53.586;9.692;2023-02-27T07:33:43;-1.50;83.60
13992;DHT22;7070;53.586;9.692;2023-02-27T07:36:10;-1.40;83.80
13992;DHT22;7070;53.586;9.692;2023-02-27T07:38:37;-1.30;83.90
13992;DHT22;7070;53.586;9.692;2023-02-27T07:41:05;-1.20;84.10
13992;DHT22;7070;53.586;9.692;2023-02-27T07:43:32;-1.20;84.10
13992;DHT22;7070;53.586;9.692;2023-02-27T07:45:58;-1.00;84.30
13992;DHT22;7070;53.586;9.692;2023-02-27T07:48:28;-0.90;84.50
13992;DHT22;7070;53.586;9.692;2023-02-27T07:50:55;-0.80;84.60
13992;DHT22;7070;53.586;9.692;2023-02-27T07:53:22;-0.70;84.60
13992;DHT22;7070;53.586;9.692;2023-02-27T07:55:49;-0.60;84.60
13992;DHT22;7070;53.586;9.692;2023-02-27T07:58:17;-0.50;84.70
13992;DHT22;7070;53.586;9.692;2023-02-27T08:00:44;-0.40;84.70
13992;DHT22;7070;53.586;9.692;2023-02-27T08:03:11;-0.30;84.80
13992;DHT22;7070;53.586;9.692;2023-02-27T08:05:38;-0.10;85.00
13992;DHT22;7070;53.586;9.692;2023-02-27T08:08:05;-0.10;84.90
13992;DHT22;7070;53.586;9.692;2023-02-27T08:10:32;0.00;85.10
13992;DHT22;7070;53.586;9.692;2023-02-27T08:12:59;0.20;85.20
13992;DHT22;7070;53.586;9.692;2023-02-27T08:15:27;0.30;85.20
13992;DHT22;7070;53.586;9.692;2023-02-27T08:17:54;0.40;85.20
13992;DHT22;7070;53.586;9.692;2023-02-27T08:20:20;0.40;85.20
13992;DHT22;7070;53.586;9.692;2023-02-27T08:22:48;0.50;85.10
13992;DHT22;7070;53.586;9.692;2023-02-27T08:25:16;0.60;85.20
13992;DHT22;7070;53.586;9.692;2023-02-27T08:27:42;0.70;85.40
13992;DHT22;7070;53.586;9.692;2023-02-27T08:30:11;0.90;86.30
13992;DHT22;7070;53.586;9.692;2023-02-27T08:32:39;0.90;85.60
13992;DHT22;7070;53.586;9.692;2023-02-27T08:35:07;1.10;85.90
13992;DHT22;7070;53.586;9.692;2023-02-27T08:37:34;1.20;85.90
13992;DHT22;7070;53.586;9.692;2023-02-27T08:40:01;1.30;86.00
13992;DHT22;7070;53.586;9.692;2023-02-27T08:42:30;1.40;86.00
13992;DHT22;7070;53.586;9.692;2023-02-27T08:44:56;1.50;86.00
13992;DHT22;7070;53.586;9.692;2023-02-27T08:47:23;1.60;86.10
13992;DHT22;7070;53.586;9.692;2023-02-27T08:49:52;1.70;86.20
13992;DHT22;7070;53.586;9.692;2023-02-27T08:52:18;1.80;86.30
13992;DHT22;7070;53.586;9.692;2023-02-27T08:54:45;1.90;86.40
13992;DHT22;7070;53.586;9.692;2023-02-27T08:57:12;2.00;86.40
13992;DHT22;7070;53.586;9.692;2023-02-27T08:59:39;2.10;86.40
13992;DHT22;7070;53.586;9.692;2023-02-27T09:02:06;2.20;86.40
13992;DHT22;7070;53.586;9.692;2023-02-27T09:04:33;2.30;86.50
13992;DHT22;7070;53.586;9.692;2023-02-27T09:07:02;2.30;86.30
13992;DHT22;7070;53.586;9.692;2023-02-27T09:09:28;2.40;86.40
13992;DHT22;7070;53.586;9.692;2023-02-27T09:11:56;2.50;86.40
13992;DHT22;7070;53.586;9.692;2023-02-27T09:14:23;2.60;86.40
13992;DHT22;7070;53.586;9.692;2023-02-27T09:16:50;2.70;86.50
13992;DHT22;7070;53.586;9.692;2023-02-27T09:19:16;2.80;86.40
13992;DHT22;7070;53.586;9.692;2023-02-27T09:21:43;2.80;86.30
13992;DHT22;7070;53.586;9.692;2023-02-27T09:24:11;2.90;86.30
13992;DHT22;7070;53.586;9.692;2023-02-27T09:26:38;3.00;86.30
13992;DHT22;7070;53.586;9.692;2023-02-27T09:29:05;3.10;86.30
13992;DHT22;7070;53.586;9.692;2023-02-27T09:31:32;3.20;86.30
13992;DHT22;7070;53.586;9.692;2023-02-27T09:33:59;3.20;86.20
13992;DHT22;7070;53.586;9.692;2023-02-27T09:36:27;3.30;86.30
13992;DHT22;7070;53.586;9.692;2023-02-27T09:38:54;3.40;86.20
13992;DHT22;7070;53.586;9.692;2023-02-27T09:41:49;3.40;86.10
13992;DHT22;7070;53.586;9.692;2023-02-27T09:44:36;3.50;86.10
13992;DHT22;7070;53.586;9.692;2023-02-27T09:47:05;3.60;86.00
13992;DHT22;7070;53.586;9.692;2023-02-27T09:49:52;3.70;85.90
13992;DHT22;7070;53.586;9.692;2023-02-27T09:52:21;3.70;85.80
13992;DHT22;7070;53.586;9.692;2023-02-27T09:54:47;3.80;85.90
13992;DHT22;7070;53.586;9.692;2023-02-27T09:57:19;3.80;85.60
13992;DHT22;7070;53.586;9.692;2023-02-27T09:59:51;3.90;85.60
13992;DHT22;7070;53.586;9.692;2023-02-27T10:02:33;4.00;85.70
13992;DHT22;7070;53.586;9.692;2023-02-27T10:05:11;4.10;85.60
13992;DHT22;7070;53.586;9.692;2023-02-27T10:07:46;4.20;85.50
13992;DHT22;7070;53.586;9.692;2023-02-27T10:10:22;4.30;85.40
13992;DHT22;7070;53.586;9.692;2023-02-27T10:13:10;4.40;85.40
13992;DHT22;7070;53.586;9.692;2023-02-27T10:15:46;4.50;85.50
13992;DHT22;7070;53.586;9.692;2023-02-27T10:18:16;4.50;85.40
13992;DHT22;7070;53.586;9.692;2023-02-27T10:20:49;4.70;85.60
13992;DHT22;7070;53.586;9.692;2023-02-27T10:23:18;4.70;85.70
13992;DHT22;7070;53.586;9.692;2023-02-27T10:25:48;4.90;85.80
13992;DHT22;7070;53.586;9.692;2023-02-27T10:28:20;5.10;86.00
13992;DHT22;7070;53.586;9.692;2023-02-27T10:30:49;5.30;86.70
13992;DHT22;7070;53.586;9.692;2023-02-27T10:33:23;5.50;85.50
13992;DHT22;7070;53.586;9.692;2023-02-27T10:35:51;5.70;84.80
13992;DHT22;7070;53.586;9.692;2023-02-27T10:38:30;5.90;84.40
13992;DHT22;7070;53.586;9.692;2023-02-27T10:40:59;6.00;84.30
13992;DHT22;7070;53.586;9.692;2023-02-27T10:43:28;6.20;84.20
13992;DHT22;7070;53.586;9.692;2023-02-27T10:45:55;6.40;84.00
13992;DHT22;7070;53.586;9.692;2023-02-27T10:48:22;6.50;83.60
13992;DHT22;7070;53.586;9.692;2023-02-27T10:50:49;6.70;83.40
13992;DHT22;7070;53.586;9.692;2023-02-27T10:53:19;6.90;83.00
13992;DHT22;7070;53.586;9.692;2023-02-27T10:55:56;7.00;82.40
13992;DHT22;7070;53.586;9.692;2023-02-27T10:58:24;7.20;82.00
13992;DHT22;7070;53.586;9.692;2023-02-27T11:00:55;7.20;81.40
13992;DHT22;7070;53.586;9.692;2023-02-27T11:03:25;7.30;80.90
13992;DHT22;7070;53.586;9.692;2023-02-27T11:05:55;7.40;79.90
13992;DHT22;7070;53.586;9.692;2023-02-27T11:08:24;7.40;80.20
13992;DHT22;7070;53.586;9.692;2023-02-27T11:10:57;7.40;79.30
13992;DHT22;7070;53.586;9.692;2023-02-27T11:13:26;7.50;79.50
13992;DHT22;7070;53.586;9.692;2023-02-27T11:16:07;7.50;79.50
13992;DHT22;7070;53.586;9.692;2023-02-27T11:18:35;7.60;79.20
13992;DHT22;7070;53.586;9.692;2023-02-27T11:21:11;7.60;78.40
13992;DHT22;7070;53.586;9.692;2023-02-27T11:23:49;7.70;78.20
13992;DHT22;7070;53.586;9.692;2023-02-27T11:26:20;7.70;78.40
13992;DHT22;7070;53.586;9.692;2023-02-27T11:29:03;7.80;79.10
13992;DHT22;7070;53.586;9.692;2023-02-27T11:31:33;7.90;78.50
13992;DHT22;7070;53.586;9.692;2023-02-27T11:34:01;8.00;78.70
13992;DHT22;7070;53.586;9.692;2023-02-27T11:36:39;8.10;78.50
13992;DHT22;7070;53.586;9.692;2023-02-27T11:42:14;8.30;78.90
13992;DHT22;7070;53.586;9.692;2023-02-27T11:44:49;8.50;78.80
13992;DHT22;7070;53.586;9.692;2023-02-27T11:47:23;8.60;78.90
13992;DHT22;7070;53.586;9.692;2023-02-27T11:50:14;8.80;79.00
13992;DHT22;7070;53.586;9.692;2023-02-27T11:52:47;8.90;78.60
13992;DHT22;7070;53.586;9.692;2023-02-27T11:55:17;9.00;77.70
13992;DHT22;7070;53.586;9.692;2023-02-27T11:57:48;9.10;77.40
13992;DHT22;7070;53.586;9.692;2023-02-27T12:00:22;9.20;76.90
13992;DHT22;7070;53.586;9.692;2023-02-27T12:02:55;9.30;76.90
13992;DHT22;7070;53.586;9.692;2023-02-27T12:05:27;9.40;77.30
13992;DHT22;7070;53.586;9.692;2023-02-27T12:07:59;9.40;77.00
13992;DHT22;7070;53.586;9.692;2023-02-27T12:10:28;9.50;77.00
13992;DHT22;7070;53.586;9.692;2023-02-27T12:12:59;9.60;76.80
13992;DHT22;7070;53.586;9.692;2023-02-27T12:15:30;9.60;76.20
13992;DHT22;7070;53.586;9.692;2023-02-27T12:18:06;9.60;76.10
13992;DHT22;7070;53.586;9.692;2023-02-27T12:20:43;9.70;76.50
13992;DHT22;7070;53.586;9.692;2023-02-27T12:23:16;9.70;76.00
13992;DHT22;7070;53.586;9.692;2023-02-27T12:25:48;9.70;75.60
13992;DHT22;7070;53.586;9.692;2023-02-27T12:31:29;9.60;75.70
13992;DHT22;7070;53.586;9.692;2023-02-27T12:34:03;9.60;74.80
13992;DHT22;7070;53.586;9.692;2023-02-27T12:36:30;9.50;73.80
13992;DHT22;7070;53.586;9.692;2023-02-27T12:38:57;9.40;73.80
13992;DHT22;7070;53.586;9.692;2023-02-27T12:41:38;9.30;73.70
13992;DHT22;7070;53.586;9.692;2023-02-27T12:44:23;9.20;73.40
13992;DHT22;7070;53.586;9.692;2023-02-27T12:46:57;9.20;73.10
13992;DHT22;7070;53.586;9.692;2023-02-27T12:49:36;9.00;73.00
13992;DHT22;7070;53.586;9.692;2023-02-27T12:52:14;9.00;73.60
13992;DHT22;7070;53.586;9.692;2023-02-27T12:54:53;8.90;74.40
13992;DHT22;7070;53.586;9.692;2023-02-27T12:57:35;8.90;75.00
13992;DHT22;7070;53.586;9.692;2023-02-27T13:00:13;9.00;75.00
13992;DHT22;7070;53.586;9.692;2023-02-27T13:02:57;9.10;73.80
13992;DHT22;7070;53.586;9.692;2023-02-27T13:05:32;9.10;73.00
13992;DHT22;7070;53.586;9.692;2023-02-27T13:08:08;9.10;73.00
13992;DHT22;7070;53.586;9.692;2023-02-27T13:10:41;9.10;73.30
13992;DHT22;7070;53.586;9.692;2023-02-27T13:13:17;9.10;72.10
13992;DHT22;7070;53.586;9.692;2023-02-27T13:15:48;9.20;71.60
13992;DHT22;7070;53.586;9.692;2023-02-27T13:18:29;9.20;70.30
13992;DHT22;7070;53.586;9.692;2023-02-27T13:21:06;9.10;70.50
13992;DHT22;7070;53.586;9.692;2023-02-27T13:23:40;9.10;70.70
13992;DHT22;7070;53.586;9.692;2023-02-27T13:26:19;9.00;70.60
13992;DHT22;7070;53.586;9.692;2023-02-27T13:28:48;9.10;70.20
13992;DHT22;7070;53.586;9.692;2023-02-27T13:31:22;9.10;70.10
13992;DHT22;7070;53.586;9.692;2023-02-27T13:33:54;9.10;70.10
13992;DHT22;7070;53.586;9.692;2023-02-27T13:36:30;9.20;70.60
13992;DHT22;7070;53.586;9.692;2023-02-27T13:38:57;9.20;70.40
13992;DHT22;7070;53.586;9.692;2023-02-27T13:41:38;9.20;70.30
13992;DHT22;7070;53.586;9.692;2023-02-27T13:44:36;9.20;70.30
13992;DHT22;7070;53.586;9.692;2023-02-27T13:50:47;9.20;69.60
13992;DHT22;7070;53.586;9.692;2023-02-27T13:53:20;9.10;70.00
13992;DHT22;7070;53.586;9.692;2023-02-27T13:55:51;9.10;70.30
13992;DHT22;7070;53.586;9.692;2023-02-27T13:58:22;9.10;70.20
13992;DHT22;7070;53.586;9.692;2023-02-27T14:00:55;9.10;70.50
13992;DHT22;7070;53.586;9.692;2023-02-27T14:03:24;9.20;70.60
13992;DHT22;7070;53.586;9.692;2023-02-27T14:05:54;9.10;69.90
13992;DHT22;7070;53.586;9.692;2023-02-27T14:08:25;9.10;69.90
13992;DHT22;7070;53.586;9.692;2023-02-27T14:10:56;9.10;70.00
13992;DHT22;7070;53.586;9.692;2023-02-27T14:14:06;9.10;70.10
13992;DHT22;7070;53.586;9.692;2023-02-27T14:16:58;9.00;69.40
13992;DHT22;7070;53.586;9.692;2023-02-27T14:19:49;8.90;69.00
13992;DHT22;7070;53.586;9.692;2023-02-27T14:25:32;8.60;69.50
13992;DHT22;7070;53.586;9.692;2023-02-27T14:28:00;8.50;69.80
13992;DHT22;7070;53.586;9.692;2023-02-27T14:30:34;8.40;70.30
13992;DHT22;7070;53.586;9.692;2023-02-27T14:33:14;8.40;71.00
13992;DHT22;7070;53.586;9.692;2023-02-27T14:35:45;8.50;70.70
13992;DHT22;7070;53.586;9.692;2023-02-27T14:38:16;8.50;70.90
13992;DHT22;7070;53.586;9.692;2023-02-27T14:41:12;8.50;71.00
13992;DHT22;7070;53.586;9.692;2023-02-27T14:43:42;8.70;71.50
13992;DHT22;7070;53.586;9.692;2023-02-27T14:46:15;8.80;71.50
13992;DHT22;7070;53.586;9.692;2023-02-27T14:48:45;8.80;71.20
13992;DHT22;7070;53.586;9.692;2023-02-27T14:51:14;8.80;70.30
13992;DHT22;7070;53.586;9.692;2023-02-27T14:53:41;8.80;70.30
13992;DHT22;7070;53.586;9.692;2023-02-27T14:56:17;8.80;69.60
13992;DHT22;7070;53.586;9.692;2023-02-27T14:58:46;8.80;70.00
13992;DHT22;7070;53.586;9.692;2023-02-27T15:01:14;8.80;69.90
13992;DHT22;7070;53.586;9.692;2023-02-27T15:03:45;8.70;70.30
13992;DHT22;7070;53.586;9.692;2023-02-27T15:06:15;8.70;69.70
13992;DHT22;7070;53.586;9.692;2023-02-27T15:08:47;8.70;69.60
13992;DHT22;7070;53.586;9.692;2023-02-27T15:11:18;8.70;69.50
13992;DHT22;7070;53.586;9.692;2023-02-27T15:13:47;8.60;69.50
13992;DHT22;7070;53.586;9.692;2023-02-27T15:16:27;8.60;69.40
13992;DHT22;7070;53.586;9.692;2023-02-27T15:18:56;8.60;69.50
13992;DHT22;7070;53.586;9.692;2023-02-27T15:21:25;8.50;69.50
13992;DHT22;7070;53.586;9.692;2023-02-27T15:23:53;8.50;69.40
13992;DHT22;7070;53.586;9.692;2023-02-27T15:26:22;8.40;69.20
13992;DHT22;7070;53.586;9.692;2023-02-27T15:28:50;8.40;69.30
13992;DHT22;7070;53.586;9.692;2023-02-27T15:31:19;8.40;69.60
13992;DHT22;7070;53.586;9.692;2023-02-27T15:33:47;8.30;69.80
13992;DHT22;7070;53.586;9.692;2023-02-27T15:36:20;8.30;69.40
13992;DHT22;7070;53.586;9.692;2023-02-27T15:39:03;8.30;69.70
13992;DHT22;7070;53.586;9.692;2023-02-27T15:41:32;8.20;69.80
13992;DHT22;7070;53.586;9.692;2023-02-27T15:44:00;8.10;70.00
13992;DHT22;7070;53.586;9.692;2023-02-27T15:46:27;8.10;70.10
13992;DHT22;7070;53.586;9.692;2023-02-27T15:48:55;8.10;70.00
13992;DHT22;7070;53.586;9.692;2023-02-27T15:51:24;8.00;70.20
13992;DHT22;7070;53.586;9.692;2023-02-27T15:53:53;8.00;71.00
13992;DHT22;7070;53.586;9.692;2023-02-27T15:56:25;8.00;70.40
13992;DHT22;7070;53.586;9.692;2023-02-27T15:58:54;8.00;70.40
13992;DHT22;7070;53.586;9.692;2023-02-27T16:01:24;7.90;70.50
13992;DHT22;7070;53.586;9.692;2023-02-27T16:03:52;7.90;70.60
13992;DHT22;7070;53.586;9.692;2023-02-27T16:06:23;7.80;70.50
13992;DHT22;7070;53.586;9.692;2023-02-27T16:08:52;7.80;70.60
13992;DHT22;7070;53.586;9.692;2023-02-27T16:11:20;7.80;70.60
13992;DHT22;7070;53.586;9.692;2023-02-27T16:13:47;7.80;70.50
13992;DHT22;7070;53.586;9.692;2023-02-27T16:16:30;7.70;70.20
13992;DHT22;7070;53.586;9.692;2023-02-27T16:19:00;7.70;71.20
13992;DHT22;7070;53.586;9.692;2023-02-27T16:21:28;7.70;70.40
13992;DHT22;7070;53.586;9.692;2023-02-27T16:24:17;7.60;70.20
13992;DHT22;7070;53.586;9.692;2023-02-27T16:26:49;7.60;70.40
13992;DHT22;7070;53.586;9.692;2023-02-27T16:29:18;7.50;70.40
13992;DHT22;7070;53.586;9.692;2023-02-27T16:31:48;7.50;70.70
13992;DHT22;7070;53.586;9.692;2023-02-27T16:34:23;7.50;71.00
13992;DHT22;7070;53.586;9.692;2023-02-27T16:36:53;7.40;71.00
13992;DHT22;7070;53.586;9.692;2023-02-27T16:39:20;7.30;71.00
13992;DHT22;7070;53.586;9.692;2023-02-27T16:41:47;7.30;71.20
13992;DHT22;7070;53.586;9.692;2023-02-27T16:44:14;7.20;71.20
13992;DHT22;7070;53.586;9.692;2023-02-27T16:46:42;7.10;71.40
13992;DHT22;7070;53.586;9.692;2023-02-27T16:49:18;7.10;71.70